sensor_id;sensor_type;location;lat;lon;timestamp;P1;durP1;ratioP1;P2;durP2;ratioP2
39128;SDS011;24864;49.940;19.770;2023-05-27T00:00:46;15.77;;;5.50;;
39128;SDS011;24864;49.940;19.770;2023-05-27T00:03:29;13.68;;;5.80;;
39128;SDS011;24864;49.940;19.770;2023-05-27T00:05:57;12.18;;;5.65;;
39128;SDS011;24864;49.940;19.770;2023-05-27T00:08:27;21.70;;;6.57;;
39128;SDS011;24864;49.940;19.770;2023-05-27T00:10:55;14.00;;;5.78;;
39128;SDS011;24864;49.940;19.770;2023-05-27T00:13:24;22.63;;;5.85;;
39128;SDS011;24864;49.940;19.770;2023-05-27T00:15:52;17.63;;;5.72;;
39128;SDS011;24864;49.940;19.770;2023-05-27T00:18:20;17.23;;;6.10;;
39128;SDS011;24864;49.940;19.770;2023-05-27T00:20:49;16.17;;;5.35;;
39128;SDS011;24864;49.940;19.770;2023-05-27T00:23:18;16.25;;;5.45;;
39128;SDS011;24864;49.940;19.770;2023-05-27T00:25:46;26.05;;;6.18;;
39128;SDS011;24864;49.940;19.770;2023-05-27T00:28:15;14.90;;;5.43;;
39128;SDS011;24864;49.940;19.770;2023-05-27T00:30:43;15.95;;;5.60;;
39128;SDS011;24864;49.940;19.770;2023-05-27T00:33:11;14.40;;;5.72;;
39128;SDS011;24864;49.940;19.770;2023-05-27T00:35:39;11.05;;;5.13;;
39128;SDS011;24864;49.940;19.770;2023-05-27T00:38:09;15.80;;;5.68;;
39128;SDS011;24864;49.940;19.770;2023-05-27T00:40:37;16.05;;;6.22;;
39128;SDS011;24864;49.940;19.770;2023-05-27T00:43:07;15.38;;;5.05;;
39128;SDS011;24864;49.940;19.770;2023-05-27T00:45:36;23.77;;;5.25;;
39128;SDS011;24864;49.940;19.770;2023-05-27T00:48:04;14.07;;;5.53;;
39128;SDS011;24864;49.940;19.770;2023-05-27T00:50:32;20.75;;;5.70;;
39128;SDS011;24864;49.940;19.770;2023-05-27T00:53:01;16.27;;;5.22;;
39128;SDS011;24864;49.940;19.770;2023-05-27T00:55:30;15.18;;;5.65;;
39128;SDS011;24864;49.940;19.770;2023-05-27T00:57:59;12.77;;;4.53;;
39128;SDS011;24864;49.940;19.770;2023-05-27T01:03:09;18.45;;;5.38;;
39128;SDS011;24864;49.940;19.770;2023-05-27T01:05:38;15.35;;;5.72;;
39128;SDS011;24864;49.940;19.770;2023-05-27T01:08:09;16.73;;;4.72;;
39128;SDS011;24864;49.940;19.770;2023-05-27T01:10:45;16.60;;;5.38;;
39128;SDS011;24864;49.940;19.770;2023-05-27T01:13:18;18.48;;;5.57;;
39128;SDS011;24864;49.940;19.770;2023-05-27T01:15:56;18.85;;;5.68;;
39128;SDS011;24864;49.940;19.770;2023-05-27T01:18:27;14.68;;;5.28;;
39128;SDS011;24864;49.940;19.770;2023-05-27T01:20:58;15.65;;;5.50;;
39128;SDS011;24864;49.940;19.770;2023-05-27T01:23:31;13.48;;;5.40;;
39128;SDS011;24864;49.940;19.770;2023-05-27T01:25:59;16.45;;;5.57;;
39128;SDS011;24864;49.940;19.770;2023-05-27T01:28:27;16.48;;;5.10;;
39128;SDS011;24864;49.940;19.770;2023-05-27T01:31:01;21.02;;;6.10;;
39128;SDS011;24864;49.940;19.770;2023-05-27T01:33:34;11.60;;;5.20;;
39128;SDS011;24864;49.940;19.770;2023-05-27T01:36:04;14.43;;;5.95;;
39128;SDS011;24864;49.940;19.770;2023-05-27T01:38:43;19.65;;;6.40;;
39128;SDS011;24864;49.940;19.770;2023-05-27T01:41:14;15.38;;;6.53;;
39128;SDS011;24864;49.940;19.770;2023-05-27T01:43:42;21.80;;;6.32;;
39128;SDS011;24864;49.940;19.770;2023-05-27T01:46:10;15.32;;;5.97;;
39128;SDS011;24864;49.940;19.770;2023-05-27T01:48:39;22.52;;;8.20;;
39128;SDS011;24864;49.940;19.770;2023-05-27T01:51:07;17.73;;;6.38;;
39128;SDS011;24864;49.940;19.770;2023-05-27T01:53:35;22.00;;;7.63;;
39128;SDS011;24864;49.940;19.770;2023-05-27T01:56:05;20.23;;;6.63;;
39128;SDS011;24864;49.940;19.770;2023-05-27T01:58:33;13.50;;;5.80;;
39128;SDS011;24864;49.940;19.770;2023-05-27T02:01:01;14.15;;;5.47;;
39128;SDS011;24864;49.940;19.770;2023-05-27T02:03:29;18.05;;;6.05;;
39128;SDS011;24864;49.940;19.770;2023-05-27T02:05:58;18.92;;;6.30;;
39128;SDS011;24864;49.940;19.770;2023-05-27T02:08:26;17.23;;;6.40;;
39128;SDS011;24864;49.940;19.770;2023-05-27T02:10:54;20.92;;;7.95;;
39128;SDS011;24864;49.940;19.770;2023-05-27T02:13:23;19.48;;;7.78;;
39128;SDS011;24864;49.940;19.770;2023-05-27T02:15:51;25.92;;;9.32;;
39128;SDS011;24864;49.940;19.770;2023-05-27T02:18:19;18.00;;;6.75;;
39128;SDS011;24864;49.940;19.770;2023-05-27T02:20:48;21.10;;;6.75;;
39128;SDS011;24864;49.940;19.770;2023-05-27T02:23:16;14.20;;;6.28;;
39128;SDS011;24864;49.940;19.770;2023-05-27T02:25:44;13.20;;;6.38;;
39128;SDS011;24864;49.940;19.770;2023-05-27T02:28:12;18.05;;;7.72;;
39128;SDS011;24864;49.940;19.770;2023-05-27T02:30:42;23.00;;;7.72;;
39128;SDS011;24864;49.940;19.770;2023-05-27T02:33:10;17.92;;;7.43;;
39128;SDS011;24864;49.940;19.770;2023-05-27T02:35:38;19.67;;;6.82;;
39128;SDS011;24864;49.940;19.770;2023-05-27T02:38:06;17.75;;;6.95;;
39128;SDS011;24864;49.940;19.770;2023-05-27T02:40:34;15.80;;;6.63;;
39128;SDS011;24864;49.940;19.770;2023-05-27T02:43:02;16.48;;;6.88;;
39128;SDS011;24864;49.940;19.770;2023-05-27T02:45:30;21.77;;;7.63;;
39128;SDS011;24864;49.940;19.770;2023-05-27T02:48:00;17.88;;;7.13;;
39128;SDS011;24864;49.940;19.770;2023-05-27T02:50:28;24.20;;;7.20;;
39128;SDS011;24864;49.940;19.770;2023-05-27T02:52:57;18.33;;;6.88;;
39128;SDS011;24864;49.940;19.770;2023-05-27T02:55:25;13.55;;;6.30;;
39128;SDS011;24864;49.940;19.770;2023-05-27T02:57:53;19.05;;;6.78;;
39128;SDS011;24864;49.940;19.770;2023-05-27T03:00:21;18.58;;;6.07;;
39128;SDS011;24864;49.940;19.770;2023-05-27T03:02:49;21.73;;;6.43;;
39128;SDS011;24864;49.940;19.770;2023-05-27T03:05:19;19.85;;;7.18;;
39128;SDS011;24864;49.940;19.770;2023-05-27T03:07:47;15.45;;;6.80;;
39128;SDS011;24864;49.940;19.770;2023-05-27T03:10:15;18.92;;;7.20;;
39128;SDS011;24864;49.940;19.770;2023-05-27T03:12:44;16.98;;;7.13;;
39128;SDS011;24864;49.940;19.770;2023-05-27T03:15:12;15.95;;;6.43;;
39128;SDS011;24864;49.940;19.770;2023-05-27T03:17:41;21.85;;;7.28;;
39128;SDS011;24864;49.940;19.770;2023-05-27T03:20:09;17.10;;;7.40;;
39128;SDS011;24864;49.940;19.770;2023-05-27T03:22:40;25.83;;;7.55;;
39128;SDS011;24864;49.940;19.770;2023-05-27T03:25:09;20.88;;;6.45;;
39128;SDS011;24864;49.940;19.770;2023-05-27T03:27:37;15.85;;;6.65;;
39128;SDS011;24864;49.940;19.770;2023-05-27T03:30:07;14.77;;;6.53;;
39128;SDS011;24864;49.940;19.770;2023-05-27T03:32:35;18.50;;;6.90;;
39128;SDS011;24864;49.940;19.770;2023-05-27T03:35:04;17.60;;;6.32;;
39128;SDS011;24864;49.940;19.770;2023-05-27T03:37:32;13.48;;;6.05;;
39128;SDS011;24864;49.940;19.770;2023-05-27T03:40:02;23.10;;;7.55;;
39128;SDS011;24864;49.940;19.770;2023-05-27T03:42:32;17.67;;;6.07;;
39128;SDS011;24864;49.940;19.770;2023-05-27T03:45:01;11.70;;;6.82;;
39128;SDS011;24864;49.940;19.770;2023-05-27T03:47:29;19.60;;;7.13;;
39128;SDS011;24864;49.940;19.770;2023-05-27T03:49:57;22.52;;;7.07;;
39128;SDS011;24864;49.940;19.770;2023-05-27T03:52:25;25.85;;;6.80;;
39128;SDS011;24864;49.940;19.770;2023-05-27T03:54:53;16.10;;;7.65;;
39128;SDS011;24864;49.940;19.770;2023-05-27T03:57:23;24.60;;;7.38;;
39128;SDS011;24864;49.940;19.770;2023-05-27T03:59:51;15.25;;;6.93;;
39128;SDS011;24864;49.940;19.770;2023-05-27T04:02:19;24.30;;;7.60;;
39128;SDS011;24864;49.940;19.770;2023-05-27T04:04:48;27.13;;;8.25;;
39128;SDS011;24864;49.940;19.770;2023-05-27T04:07:15;18.50;;;6.63;;
39128;SDS011;24864;49.940;19.770;2023-05-27T04:09:45;20.88;;;6.95;;
39128;SDS011;24864;49.940;19.770;2023-05-27T04:12:13;25.27;;;7.35;;
39128;SDS011;24864;49.940;19.770;2023-05-27T04:14:43;23.15;;;7.15;;
39128;SDS011;24864;49.940;19.770;2023-05-27T04:17:11;18.65;;;6.65;;
39128;SDS011;24864;49.940;19.770;2023-05-27T04:19:40;14.57;;;6.38;;
39128;SDS011;24864;49.940;19.770;2023-05-27T04:22:08;18.08;;;7.25;;
39128;SDS011;24864;49.940;19.770;2023-05-27T04:24:36;23.88;;;6.57;;
39128;SDS011;24864;49.940;19.770;2023-05-27T04:27:05;20.75;;;6.68;;
39128;SDS011;24864;49.940;19.770;2023-05-27T04:29:34;16.58;;;6.85;;
39128;SDS011;24864;49.940;19.770;2023-05-27T04:32:03;21.95;;;7.70;;
39128;SDS011;24864;49.940;19.770;2023-05-27T04:34:32;17.77;;;6.57;;
39128;SDS011;24864;49.940;19.770;2023-05-27T04:37:00;17.25;;;6.72;;
39128;SDS011;24864;49.940;19.770;2023-05-27T04:39:28;22.80;;;6.97;;
39128;SDS011;24864;49.940;19.770;2023-05-27T04:41:57;17.83;;;6.63;;
39128;SDS011;24864;49.940;19.770;2023-05-27T04:44:25;21.08;;;6.78;;
39128;SDS011;24864;49.940;19.770;2023-05-27T04:46:54;18.60;;;7.43;;
39128;SDS011;24864;49.940;19.770;2023-05-27T04:49:24;25.23;;;7.53;;
39128;SDS011;24864;49.940;19.770;2023-05-27T04:51:52;21.70;;;7.97;;
39128;SDS011;24864;49.940;19.770;2023-05-27T04:54:21;20.77;;;7.50;;
39128;SDS011;24864;49.940;19.770;2023-05-27T04:56:49;26.42;;;9.25;;
39128;SDS011;24864;49.940;19.770;2023-05-27T04:59:18;22.83;;;9.32;;
39128;SDS011;24864;49.940;19.770;2023-05-27T05:01:49;24.08;;;9.15;;
39128;SDS011;24864;49.940;19.770;2023-05-27T05:04:35;35.25;;;11.13;;
39128;SDS011;24864;49.940;19.770;2023-05-27T05:07:04;21.40;;;10.30;;
39128;SDS011;24864;49.940;19.770;2023-05-27T05:09:32;33.08;;;11.07;;
39128;SDS011;24864;49.940;19.770;2023-05-27T05:12:02;39.20;;;12.63;;
39128;SDS011;24864;49.940;19.770;2023-05-27T05:14:31;32.63;;;13.43;;
39128;SDS011;24864;49.940;19.770;2023-05-27T05:16:59;37.17;;;13.60;;
39128;SDS011;24864;49.940;19.770;2023-05-27T05:19:28;44.67;;;13.20;;
39128;SDS011;24864;49.940;19.770;2023-05-27T05:21:57;48.08;;;14.63;;
39128;SDS011;24864;49.940;19.770;2023-05-27T05:24:25;50.47;;;17.33;;
39128;SDS011;24864;49.940;19.770;2023-05-27T05:26:53;47.88;;;18.40;;
39128;SDS011;24864;49.940;19.770;2023-05-27T05:29:22;52.90;;;17.30;;
39128;SDS011;24864;49.940;19.770;2023-05-27T05:31:50;53.17;;;15.07;;
39128;SDS011;24864;49.940;19.770;2023-05-27T05:34:19;40.08;;;12.75;;
39128;SDS011;24864;49.940;19.770;2023-05-27T05:36:47;32.65;;;8.88;;
39128;SDS011;24864;49.940;19.770;2023-05-27T05:39:17;30.88;;;10.15;;
39128;SDS011;24864;49.940;19.770;2023-05-27T05:41:46;19.02;;;8.25;;
39128;SDS011;24864;49.940;19.770;2023-05-27T05:44:15;23.63;;;8.52;;
39128;SDS011;24864;49.940;19.770;2023-05-27T05:46:43;23.25;;;8.88;;
39128;SDS011;24864;49.940;19.770;2023-05-27T05:49:11;23.08;;;8.40;;
39128;SDS011;24864;49.940;19.770;2023-05-27T05:51:39;16.58;;;9.02;;
39128;SDS011;24864;49.940;19.770;2023-05-27T05:54:08;30.17;;;7.25;;
39128;SDS011;24864;49.940;19.770;2023-05-27T05:56:37;22.02;;;6.72;;
39128;SDS011;24864;49.940;19.770;2023-05-27T05:59:06;24.60;;;7.70;;
39128;SDS011;24864;49.940;19.770;2023-05-27T06:01:34;20.70;;;6.90;;
39128;SDS011;24864;49.940;19.770;2023-05-27T06:04:02;22.95;;;6.43;;
39128;SDS011;24864;49.940;19.770;2023-05-27T06:06:33;25.65;;;7.63;;
39128;SDS011;24864;49.940;19.770;2023-05-27T06:09:01;23.63;;;6.40;;
39128;SDS011;24864;49.940;19.770;2023-05-27T06:11:29;25.67;;;7.18;;
39128;SDS011;24864;49.940;19.770;2023-05-27T06:14:00;25.40;;;6.97;;
39128;SDS011;24864;49.940;19.770;2023-05-27T06:16:28;17.00;;;6.22;;
39128;SDS011;24864;49.940;19.770;2023-05-27T06:18:57;21.42;;;7.63;;
39128;SDS011;24864;49.940;19.770;2023-05-27T06:21:25;24.85;;;6.65;;
39128;SDS011;24864;49.940;19.770;2023-05-27T06:23:53;19.83;;;6.50;;
39128;SDS011;24864;49.940;19.770;2023-05-27T06:26:21;22.90;;;5.97;;
39128;SDS011;24864;49.940;19.770;2023-05-27T06:28:49;20.85;;;6.72;;
39128;SDS011;24864;49.940;19.770;2023-05-27T06:31:18;17.77;;;5.65;;
39128;SDS011;24864;49.940;19.770;2023-05-27T06:33:46;26.27;;;7.28;;
39128;SDS011;24864;49.940;19.770;2023-05-27T06:36:15;20.35;;;6.30;;
39128;SDS011;24864;49.940;19.770;2023-05-27T06:38:43;24.63;;;6.40;;
39128;SDS011;24864;49.940;19.770;2023-05-27T06:41:11;18.85;;;7.00;;
39128;SDS011;24864;49.940;19.770;2023-05-27T06:43:39;17.20;;;6.28;;
39128;SDS011;24864;49.940;19.770;2023-05-27T06:46:07;20.80;;;6.05;;
39128;SDS011;24864;49.940;19.770;2023-05-27T06:48:37;27.67;;;6.78;;
39128;SDS011;24864;49.940;19.770;2023-05-27T06:51:05;22.73;;;5.97;;
39128;SDS011;24864;49.940;19.770;2023-05-27T06:53:34;16.98;;;5.45;;
39128;SDS011;24864;49.940;19.770;2023-05-27T06:56:02;21.80;;;6.30;;
39128;SDS011;24864;49.940;19.770;2023-05-27T06:58:30;25.90;;;6.80;;
39128;SDS011;24864;49.940;19.770;2023-05-27T07:01:00;17.10;;;6.15;;
39128;SDS011;24864;49.940;19.770;2023-05-27T07:03:29;20.77;;;6.45;;
39128;SDS011;24864;49.940;19.770;2023-05-27T07:05:58;17.77;;;5.53;;
39128;SDS011;24864;49.940;19.770;2023-05-27T07:08:27;19.90;;;5.95;;
39128;SDS011;24864;49.940;19.770;2023-05-27T07:10:55;21.20;;;5.50;;
39128;SDS011;24864;49.940;19.770;2023-05-27T07:13:23;17.98;;;5.20;;
39128;SDS011;24864;49.940;19.770;2023-05-27T07:15:51;21.73;;;6.05;;
39128;SDS011;24864;49.940;19.770;2023-05-27T07:18:19;14.63;;;5.20;;
39128;SDS011;24864;49.940;19.770;2023-05-27T07:20:47;17.08;;;5.63;;
39128;SDS011;24864;49.940;19.770;2023-05-27T07:23:17;13.45;;;4.57;;
39128;SDS011;24864;49.940;19.770;2023-05-27T07:25:45;19.85;;;5.78;;
39128;SDS011;24864;49.940;19.770;2023-05-27T07:28:13;21.15;;;6.45;;
39128;SDS011;24864;49.940;19.770;2023-05-27T07:30:43;13.40;;;5.25;;
39128;SDS011;24864;49.940;19.770;2023-05-27T07:33:11;17.17;;;6.38;;
39128;SDS011;24864;49.940;19.770;2023-05-27T07:35:40;17.70;;;6.85;;
39128;SDS011;24864;49.940;19.770;2023-05-27T07:41:05;14.25;;;5.40;;
39128;SDS011;24864;49.940;19.770;2023-05-27T07:43:34;22.80;;;5.53;;
39128;SDS011;24864;49.940;19.770;2023-05-27T07:46:02;13.73;;;4.25;;
39128;SDS011;24864;49.940;19.770;2023-05-27T07:48:30;21.80;;;5.75;;
39128;SDS011;24864;49.940;19.770;2023-05-27T07:50:58;15.73;;;4.63;;
39128;SDS011;24864;49.940;19.770;2023-05-27T07:53:26;19.60;;;5.70;;
39128;SDS011;24864;49.940;19.770;2023-05-27T07:55:54;24.08;;;5.22;;
39128;SDS011;24864;49.940;19.770;2023-05-27T07:58:24;12.23;;;4.65;;
39128;SDS011;24864;49.940;19.770;2023-05-27T08:00:52;16.58;;;5.13;;
39128;SDS011;24864;49.940;19.770;2023-05-27T08:03:20;33.78;;;6.20;;
39128;SDS011;24864;49.940;19.770;2023-05-27T08:05:49;32.33;;;7.38;;
39128;SDS011;24864;49.940;19.770;2023-05-27T08:08:17;18.02;;;5.05;;
39128;SDS011;24864;49.940;19.770;2023-05-27T08:10:45;16.42;;;5.40;;
39128;SDS011;24864;49.940;19.770;2023-05-27T08:13:13;16.42;;;6.00;;
39128;SDS011;24864;49.940;19.770;2023-05-27T08:15:42;18.48;;;6.82;;
39128;SDS011;24864;49.940;19.770;2023-05-27T08:18:11;23.33;;;6.88;;
39128;SDS011;24864;49.940;19.770;2023-05-27T08:20:39;17.42;;;5.75;;
39128;SDS011;24864;49.940;19.770;2023-05-27T08:23:07;23.77;;;5.80;;
39128;SDS011;24864;49.940;19.770;2023-05-27T08:25:35;24.77;;;6.18;;
39128;SDS011;24864;49.940;19.770;2023-05-27T08:28:04;26.05;;;6.40;;
39128;SDS011;24864;49.940;19.770;2023-05-27T08:30:32;24.25;;;7.00;;
39128;SDS011;24864;49.940;19.770;2023-05-27T08:33:02;21.90;;;6.07;;
39128;SDS011;24864;49.940;19.770;2023-05-27T08:35:30;17.45;;;5.53;;
39128;SDS011;24864;49.940;19.770;2023-05-27T08:37:58;26.30;;;6.55;;
39128;SDS011;24864;49.940;19.770;2023-05-27T08:40:26;20.88;;;5.75;;
39128;SDS011;24864;49.940;19.770;2023-05-27T08:42:55;18.55;;;5.45;;
39128;SDS011;24864;49.940;19.770;2023-05-27T08:45:23;15.75;;;4.97;;
39128;SDS011;24864;49.940;19.770;2023-05-27T08:47:51;14.38;;;4.57;;
39128;SDS011;24864;49.940;19.770;2023-05-27T08:50:22;17.55;;;5.50;;
39128;SDS011;24864;49.940;19.770;2023-05-27T08:52:52;27.90;;;5.63;;
39128;SDS011;24864;49.940;19.770;2023-05-27T08:55:21;17.40;;;5.72;;
39128;SDS011;24864;49.940;19.770;2023-05-27T08:57:50;21.48;;;5.25;;
39128;SDS011;24864;49.940;19.770;2023-05-27T09:00:21;21.05;;;5.95;;
39128;SDS011;24864;49.940;19.770;2023-05-27T09:02:49;16.17;;;5.03;;
39128;SDS011;24864;49.940;19.770;2023-05-27T09:05:17;18.08;;;4.70;;
39128;SDS011;24864;49.940;19.770;2023-05-27T09:07:47;17.15;;;6.07;;
39128;SDS011;24864;49.940;19.770;2023-05-27T09:10:16;15.85;;;5.38;;
39128;SDS011;24864;49.940;19.770;2023-05-27T09:12:44;22.23;;;5.95;;
39128;SDS011;24864;49.940;19.770;2023-05-27T09:15:13;21.05;;;5.18;;
39128;SDS011;24864;49.940;19.770;2023-05-27T09:17:42;15.50;;;5.32;;
39128;SDS011;24864;49.940;19.770;2023-05-27T09:20:10;15.07;;;4.55;;
39128;SDS011;24864;49.940;19.770;2023-05-27T09:22:40;14.82;;;5.28;;
39128;SDS011;24864;49.940;19.770;2023-05-27T09:25:09;17.23;;;5.60;;
39128;SDS011;24864;49.940;19.770;2023-05-27T09:27:42;17.05;;;4.43;;
39128;SDS011;24864;49.940;19.770;2023-05-27T09:30:11;14.57;;;5.18;;
39128;SDS011;24864;49.940;19.770;2023-05-27T09:32:40;16.00;;;4.85;;
39128;SDS011;24864;49.940;19.770;2023-05-27T09:35:10;18.13;;;4.80;;
39128;SDS011;24864;49.940;19.770;2023-05-27T09:37:39;19.83;;;5.45;;
39128;SDS011;24864;49.940;19.770;2023-05-27T09:40:07;15.00;;;5.32;;
39128;SDS011;24864;49.940;19.770;2023-05-27T09:42:39;15.18;;;4.85;;
39128;SDS011;24864;49.940;19.770;2023-05-27T09:45:09;16.88;;;5.50;;
39128;SDS011;24864;49.940;19.770;2023-05-27T09:47:40;19.55;;;5.60;;
39128;SDS011;24864;49.940;19.770;2023-05-27T09:50:09;18.40;;;4.47;;
39128;SDS011;24864;49.940;19.770;2023-05-27T09:52:38;15.68;;;5.35;;
39128;SDS011;24864;49.940;19.770;2023-05-27T09:55:15;20.25;;;5.25;;
39128;SDS011;24864;49.940;19.770;2023-05-27T09:57:44;15.05;;;5.22;;
39128;SDS011;24864;49.940;19.770;2023-05-27T10:00:12;19.42;;;4.75;;
39128;SDS011;24864;49.940;19.770;2023-05-27T10:02:42;15.05;;;5.28;;
39128;SDS011;24864;49.940;19.770;2023-05-27T10:05:13;13.65;;;4.88;;
39128;SDS011;24864;49.940;19.770;2023-05-27T10:07:43;14.93;;;5.05;;
39128;SDS011;24864;49.940;19.770;2023-05-27T10:10:33;15.32;;;5.30;;
39128;SDS011;24864;49.940;19.770;2023-05-27T10:13:02;21.17;;;5.40;;
39128;SDS011;24864;49.940;19.770;2023-05-27T10:15:30;17.10;;;5.22;;
39128;SDS011;24864;49.940;19.770;2023-05-27T10:17:59;17.92;;;5.78;;
39128;SDS011;24864;49.940;19.770;2023-05-27T10:20:30;15.52;;;5.50;;
39128;SDS011;24864;49.940;19.770;2023-05-27T10:23:08;21.95;;;5.22;;
39128;SDS011;24864;49.940;19.770;2023-05-27T10:25:40;20.40;;;5.25;;
39128;SDS011;24864;49.940;19.770;2023-05-27T10:28:22;18.08;;;4.80;;
39128;SDS011;24864;49.940;19.770;2023-05-27T10:30:51;14.93;;;4.75;;
39128;SDS011;24864;49.940;19.770;2023-05-27T10:33:27;12.85;;;5.85;;
39128;SDS011;24864;49.940;19.770;2023-05-27T10:36:02;17.23;;;5.40;;
39128;SDS011;24864;49.940;19.770;2023-05-27T10:38:31;19.20;;;5.95;;
39128;SDS011;24864;49.940;19.770;2023-05-27T10:41:01;17.83;;;5.10;;
39128;SDS011;24864;49.940;19.770;2023-05-27T10:43:31;21.35;;;5.32;;
39128;SDS011;24864;49.940;19.770;2023-05-27T10:46:04;17.77;;;4.80;;
39128;SDS011;24864;49.940;19.770;2023-05-27T10:48:34;14.02;;;5.10;;
39128;SDS011;24864;49.940;19.770;2023-05-27T10:51:03;16.92;;;5.72;;
39128;SDS011;24864;49.940;19.770;2023-05-27T10:53:34;15.68;;;5.93;;
39128;SDS011;24864;49.940;19.770;2023-05-27T10:56:04;14.18;;;4.57;;
39128;SDS011;24864;49.940;19.770;2023-05-27T10:58:33;20.83;;;5.68;;
39128;SDS011;24864;49.940;19.770;2023-05-27T11:01:03;16.13;;;5.43;;
39128;SDS011;24864;49.940;19.770;2023-05-27T11:03:41;13.98;;;4.97;;
39128;SDS011;24864;49.940;19.770;2023-05-27T11:06:10;16.08;;;4.75;;
39128;SDS011;24864;49.940;19.770;2023-05-27T11:08:40;12.77;;;4.85;;
39128;SDS011;24864;49.940;19.770;2023-05-27T11:11:10;13.43;;;4.65;;
39128;SDS011;24864;49.940;19.770;2023-05-27T11:13:39;14.32;;;4.75;;
39128;SDS011;24864;49.940;19.770;2023-05-27T11:16:13;11.82;;;4.13;;
39128;SDS011;24864;49.940;19.770;2023-05-27T11:18:43;12.07;;;4.43;;
39128;SDS011;24864;49.940;19.770;2023-05-27T11:21:12;12.32;;;4.45;;
39128;SDS011;24864;49.940;19.770;2023-05-27T11:23:43;14.75;;;4.18;;
39128;SDS011;24864;49.940;19.770;2023-05-27T11:26:14;10.77;;;3.63;;
39128;SDS011;24864;49.940;19.770;2023-05-27T11:28:46;10.10;;;4.65;;
39128;SDS011;24864;49.940;19.770;2023-05-27T11:31:15;16.45;;;4.78;;
39128;SDS011;24864;49.940;19.770;2023-05-27T11:33:44;12.50;;;4.32;;
39128;SDS011;24864;49.940;19.770;2023-05-27T11:36:13;8.77;;;3.88;;
39128;SDS011;24864;49.940;19.770;2023-05-27T11:38:49;9.70;;;3.88;;
39128;SDS011;24864;49.940;19.770;2023-05-27T11:41:23;11.60;;;4.53;;
39128;SDS011;24864;49.940;19.770;2023-05-27T11:43:54;11.02;;;4.28;;
39128;SDS011;24864;49.940;19.770;2023-05-27T11:46:24;11.13;;;3.80;;
39128;SDS011;24864;49.940;19.770;2023-05-27T11:49:02;15.00;;;4.50;;
39128;SDS011;24864;49.940;19.770;2023-05-27T11:51:30;13.48;;;4.88;;
39128;SDS011;24864;49.940;19.770;2023-05-27T11:54:00;8.68;;;4.13;;
39128;SDS011;24864;49.940;19.770;2023-05-27T11:56:30;9.25;;;4.80;;
39128;SDS011;24864;49.940;19.770;2023-05-27T11:58:58;10.43;;;5.00;;
39128;SDS011;24864;49.940;19.770;2023-05-27T12:01:26;20.85;;;6.40;;
39128;SDS011;24864;49.940;19.770;2023-05-27T12:03:55;9.52;;;4.68;;
39128;SDS011;24864;49.940;19.770;2023-05-27T12:06:23;9.88;;;4.22;;
39128;SDS011;24864;49.940;19.770;2023-05-27T12:08:51;13.65;;;6.10;;
39128;SDS011;24864;49.940;19.770;2023-05-27T12:11:19;7.40;;;4.75;;
39128;SDS011;24864;49.940;19.770;2023-05-27T12:13:50;7.82;;;4.90;;
39128;SDS011;24864;49.940;19.770;2023-05-27T12:16:20;7.28;;;5.28;;
39128;SDS011;24864;49.940;19.770;2023-05-27T12:18:48;8.70;;;5.07;;
39128;SDS011;24864;49.940;19.770;2023-05-27T12:21:16;11.20;;;5.57;;
39128;SDS011;24864;49.940;19.770;2023-05-27T12:23:46;8.57;;;5.40;;
39128;SDS011;24864;49.940;19.770;2023-05-27T12:26:14;8.95;;;5.05;;
39128;SDS011;24864;49.940;19.770;2023-05-27T12:28:43;7.45;;;4.95;;
39128;SDS011;24864;49.940;19.770;2023-05-27T12:31:13;6.78;;;5.07;;
39128;SDS011;24864;49.940;19.770;2023-05-27T12:33:41;7.60;;;5.38;;
39128;SDS011;24864;49.940;19.770;2023-05-27T12:36:09;8.85;;;4.57;;
39128;SDS011;24864;49.940;19.770;2023-05-27T12:38:38;7.00;;;5.43;;
39128;SDS011;24864;49.940;19.770;2023-05-27T12:41:06;9.77;;;5.03;;
39128;SDS011;24864;49.940;19.770;2023-05-27T12:43:35;6.30;;;4.45;;
39128;SDS011;24864;49.940;19.770;2023-05-27T12:46:03;7.57;;;4.68;;
39128;SDS011;24864;49.940;19.770;2023-05-27T12:48:33;6.45;;;4.80;;
39128;SDS011;24864;49.940;19.770;2023-05-27T12:51:01;10.95;;;5.15;;
39128;SDS011;24864;49.940;19.770;2023-05-27T12:53:30;6.72;;;4.68;;
39128;SDS011;24864;49.940;19.770;2023-05-27T12:55:58;7.40;;;4.88;;
39128;SDS011;24864;49.940;19.770;2023-05-27T12:58:27;11.13;;;5.20;;
39128;SDS011;24864;49.940;19.770;2023-05-27T13:00:55;7.15;;;5.13;;
39128;SDS011;24864;49.940;19.770;2023-05-27T13:03:24;8.32;;;5.25;;
39128;SDS011;24864;49.940;19.770;2023-05-27T13:05:54;10.02;;;5.22;;
39128;SDS011;24864;49.940;19.770;2023-05-27T13:08:22;11.10;;;5.57;;
39128;SDS011;24864;49.940;19.770;2023-05-27T13:10:50;11.82;;;6.35;;
39128;SDS011;24864;49.940;19.770;2023-05-27T13:13:18;10.43;;;5.82;;
39128;SDS011;24864;49.940;19.770;2023-05-27T13:15:46;8.23;;;5.40;;
39128;SDS011;24864;49.940;19.770;2023-05-27T13:18:16;12.30;;;5.55;;
39128;SDS011;24864;49.940;19.770;2023-05-27T13:20:44;8.10;;;5.68;;
39128;SDS011;24864;49.940;19.770;2023-05-27T13:23:14;8.82;;;4.55;;
39128;SDS011;24864;49.940;19.770;2023-05-27T13:25:42;6.47;;;4.50;;
39128;SDS011;24864;49.940;19.770;2023-05-27T13:28:10;6.38;;;4.90;;
39128;SDS011;24864;49.940;19.770;2023-05-27T13:30:38;8.43;;;4.68;;
39128;SDS011;24864;49.940;19.770;2023-05-27T13:33:07;9.40;;;4.50;;
39128;SDS011;24864;49.940;19.770;2023-05-27T13:35:35;7.15;;;4.50;;
39128;SDS011;24864;49.940;19.770;2023-05-27T13:38:04;6.95;;;5.13;;
39128;SDS011;24864;49.940;19.770;2023-05-27T13:40:34;8.80;;;5.20;;
39128;SDS011;24864;49.940;19.770;2023-05-27T13:43:02;7.10;;;4.80;;
39128;SDS011;24864;49.940;19.770;2023-05-27T13:45:30;9.15;;;3.90;;
39128;SDS011;24864;49.940;19.770;2023-05-27T13:47:58;9.85;;;3.88;;
39128;SDS011;24864;49.940;19.770;2023-05-27T13:50:26;11.30;;;3.97;;
39128;SDS011;24864;49.940;19.770;2023-05-27T13:52:55;6.82;;;4.18;;
39128;SDS011;24864;49.940;19.770;2023-05-27T13:55:23;7.95;;;3.72;;
39128;SDS011;24864;49.940;19.770;2023-05-27T13:57:53;7.00;;;3.72;;
39128;SDS011;24864;49.940;19.770;2023-05-27T14:00:21;5.95;;;3.58;;
39128;SDS011;24864;49.940;19.770;2023-05-27T14:02:49;5.55;;;3.50;;
39128;SDS011;24864;49.940;19.770;2023-05-27T14:05:18;7.38;;;3.83;;
39128;SDS011;24864;49.940;19.770;2023-05-27T14:07:46;5.93;;;3.17;;
39128;SDS011;24864;49.940;19.770;2023-05-27T14:10:14;5.30;;;2.78;;
39128;SDS011;24864;49.940;19.770;2023-05-27T14:12:43;4.88;;;2.78;;
39128;SDS011;24864;49.940;19.770;2023-05-27T14:15:12;4.35;;;2.72;;
39128;SDS011;24864;49.940;19.770;2023-05-27T14:17:41;6.32;;;2.97;;
39128;SDS011;24864;49.940;19.770;2023-05-27T14:20:09;5.00;;;2.75;;
39128;SDS011;24864;49.940;19.770;2023-05-27T14:22:39;4.47;;;2.58;;
39128;SDS011;24864;49.940;19.770;2023-05-27T14:25:08;7.18;;;3.55;;
39128;SDS011;24864;49.940;19.770;2023-05-27T14:27:37;6.95;;;3.22;;
39128;SDS011;24864;49.940;19.770;2023-05-27T14:30:05;5.47;;;3.65;;
39128;SDS011;24864;49.940;19.770;2023-05-27T14:32:36;4.57;;;3.13;;
39128;SDS011;24864;49.940;19.770;2023-05-27T14:35:04;16.52;;;3.35;;
39128;SDS011;24864;49.940;19.770;2023-05-27T14:37:34;6.20;;;2.78;;
39128;SDS011;24864;49.940;19.770;2023-05-27T14:40:02;3.85;;;2.65;;